createdAt,value
2019-05-21T00:00:41.004Z,14.40
2019-05-21T00:03:10.846Z,14.40
2019-05-21T00:05:40.780Z,14.40
2019-05-21T00:08:10.629Z,14.40
2019-05-21T00:10:40.568Z,14.40
2019-05-21T00:13:10.585Z,14.40
2019-05-21T00:15:40.436Z,14.40
2019-05-21T00:18:10.315Z,14.30
2019-05-21T00:20:40.336Z,14.30
2019-05-21T00:23:10.244Z,14.40
2019-05-21T00:25:40.112Z,14.40
2019-05-21T00:28:33.802Z,14.30
2019-05-21T00:31:40.564Z,14.40
2019-05-21T00:34:47.618Z,14.40
2019-05-21T00:37:54.051Z,14.30
2019-05-21T00:41:00.763Z,14.20
2019-05-21T00:43:43.881Z,14.20
2019-05-21T00:46:13.988Z,14.20
2019-05-21T00:48:44.001Z,14.20
2019-05-21T00:51:13.929Z,14.20
2019-05-21T00:53:43.867Z,14.30
2019-05-21T00:56:14.867Z,14.30
2019-05-21T00:58:44.807Z,14.20
2019-05-21T01:01:14.748Z,14.20
2019-05-21T01:03:44.681Z,14.20
2019-05-21T01:06:14.627Z,14.20
2019-05-21T01:08:45.584Z,14.20
2019-05-21T01:11:15.528Z,14.10
2019-05-21T01:13:45.457Z,14.20
2019-05-21T01:16:15.340Z,14.10
2019-05-21T01:18:45.179Z,14.20
2019-05-21T01:21:15.121Z,14.10
2019-05-21T01:23:44.991Z,14.20
2019-05-21T01:26:14.953Z,14.10
2019-05-21T01:28:44.815Z,14.20
2019-05-21T01:31:14.766Z,14.10
2019-05-21T01:33:44.698Z,14.10
2019-05-21T01:36:14.658Z,14.10
2019-05-21T01:38:44.574Z,14.10
2019-05-21T01:41:14.441Z,14.10
2019-05-21T01:43:44.318Z,14.10
2019-05-21T01:46:14.296Z,14.10
2019-05-21T01:48:44.237Z,14.00
2019-05-21T01:51:14.145Z,14.00
2019-05-21T01:53:44.081Z,14.00
2019-05-21T01:56:14.206Z,14.00
2019-05-21T01:58:44.160Z,13.90
2019-05-21T02:01:14.104Z,13.80
2019-05-21T02:03:44.060Z,13.80
2019-05-21T02:06:14.046Z,13.90
2019-05-21T02:08:43.995Z,13.80
2019-05-21T02:11:14.114Z,13.80
2019-05-21T02:13:44.135Z,13.80
2019-05-21T02:16:14.042Z,13.70
2019-05-21T02:29:57.161Z,13.80
2019-05-21T02:32:27.081Z,13.80
2019-05-21T02:34:57.050Z,13.80
2019-05-21T02:37:26.972Z,13.80
2019-05-21T02:39:56.884Z,13.80
2019-05-21T02:42:27.876Z,13.80
2019-05-21T02:44:58.036Z,13.80
2019-05-21T02:47:27.951Z,13.80
2019-05-21T02:49:57.887Z,13.80
2019-05-21T02:52:27.746Z,13.70
2019-05-21T02:54:57.796Z,13.70
2019-05-21T02:57:29.349Z,13.60
2019-05-21T03:00:00.856Z,13.70
2019-05-21T03:02:32.350Z,13.60
2019-05-21T03:05:02.244Z,13.50
2019-05-21T03:07:32.166Z,13.50
2019-05-21T03:10:02.186Z,13.50
2019-05-21T03:12:32.105Z,13.50
2019-05-21T03:15:02.050Z,13.50
2019-05-21T03:17:33.122Z,13.50
2019-05-21T03:20:05.504Z,13.50
2019-05-21T03:22:35.350Z,13.50
2019-05-21T03:25:06.280Z,13.50
2019-05-21T03:27:36.139Z,13.50
2019-05-21T03:30:07.704Z,13.50
2019-05-21T03:32:37.624Z,13.50
2019-05-21T03:35:08.038Z,13.50
2019-05-21T03:37:37.961Z,13.50
2019-05-21T03:40:08.939Z,13.60
2019-05-21T03:42:38.789Z,13.50
2019-05-21T03:45:09.503Z,13.50
2019-05-21T03:47:39.492Z,13.50
2019-05-21T03:50:09.543Z,13.50
2019-05-21T03:52:39.473Z,13.40
2019-05-21T03:55:09.750Z,13.40
2019-05-21T03:57:39.783Z,13.40
2019-05-21T04:00:10.762Z,13.40
2019-05-21T04:02:40.838Z,13.50
2019-05-21T04:05:10.834Z,13.40
2019-05-21T04:07:40.772Z,13.40
2019-05-21T04:10:15.318Z,13.40
2019-05-21T04:12:46.883Z,13.50
2019-05-21T04:15:21.189Z,13.40
2019-05-21T04:17:58.576Z,13.40
2019-05-21T04:20:28.513Z,13.40
2019-05-21T04:22:58.458Z,13.40
2019-05-21T04:25:28.375Z,13.40
2019-05-21T04:27:58.241Z,13.40
2019-05-21T04:30:29.897Z,13.40
2019-05-21T04:32:59.818Z,13.40
2019-05-21T04:35:29.738Z,13.40
2019-05-21T04:37:59.604Z,13.40
2019-05-21T04:40:29.550Z,13.40
2019-05-21T04:43:02.134Z,13.40
2019-05-21T04:45:31.082Z,13.40
2019-05-21T04:48:01.467Z,13.50
2019-05-21T04:50:31.405Z,13.40
2019-05-21T04:53:02.331Z,13.50
2019-05-21T04:55:32.193Z,13.50
2019-05-21T04:58:02.118Z,13.50
2019-05-21T05:00:32.225Z,13.50
2019-05-21T05:03:02.064Z,13.50
2019-05-21T05:05:31.944Z,13.50
2019-05-21T05:08:01.839Z,13.40
2019-05-21T05:10:31.767Z,13.40
2019-05-21T05:13:01.707Z,13.40
2019-05-21T05:15:31.843Z,13.50
2019-05-21T05:18:01.707Z,13.40
2019-05-21T05:20:31.557Z,13.50
2019-05-21T05:23:01.520Z,13.60
2019-05-21T05:25:32.501Z,13.50
2019-05-21T05:28:02.423Z,13.50
2019-05-21T05:30:32.648Z,13.50
2019-05-21T05:33:02.772Z,13.50
2019-05-21T05:35:32.730Z,13.50
2019-05-21T05:38:02.658Z,13.50
2019-05-21T05:40:32.604Z,13.60
2019-05-21T05:43:02.460Z,13.70
2019-05-21T05:45:32.385Z,13.70
2019-05-21T05:48:02.249Z,13.80
2019-05-21T05:50:33.746Z,13.80
2019-05-21T05:53:03.707Z,13.70
2019-05-21T05:55:33.642Z,13.70
2019-05-21T05:58:03.582Z,13.60
2019-05-21T06:00:33.419Z,13.70
2019-05-21T06:03:03.455Z,13.80
2019-05-21T06:05:33.457Z,13.90
2019-05-21T06:08:03.592Z,14.00
2019-05-21T06:10:33.539Z,14.00
2019-05-21T06:13:03.477Z,14.10
2019-05-21T06:15:33.487Z,14.20
2019-05-21T06:18:03.494Z,14.30
2019-05-21T06:20:33.487Z,14.20
2019-05-21T06:23:03.447Z,14.30
2019-05-21T06:25:33.434Z,14.30
2019-05-21T06:28:03.428Z,14.20
2019-05-21T06:30:33.474Z,14.20
2019-05-21T06:33:03.410Z,14.20
2019-05-21T06:35:33.337Z,14.10
2019-05-21T06:38:16.478Z,14.20
2019-05-21T06:40:38.243Z,14.10
2019-05-21T06:43:06.400Z,14.10
2019-05-21T06:45:36.358Z,14.20
2019-05-21T06:48:06.365Z,14.20
2019-05-21T06:50:37.517Z,14.20
2019-05-21T06:53:07.845Z,14.20
2019-05-21T06:55:37.791Z,14.20
2019-05-21T06:58:07.744Z,14.40
2019-05-21T07:00:37.706Z,14.50
2019-05-21T07:03:07.771Z,14.60
2019-05-21T07:05:37.718Z,14.60
2019-05-21T07:08:07.733Z,14.60
2019-05-21T07:10:38.255Z,14.60
2019-05-21T07:13:08.330Z,14.60
2019-05-21T07:15:38.434Z,14.60
2019-05-21T07:18:08.383Z,14.60
2019-05-21T07:20:38.384Z,14.60
2019-05-21T07:23:08.407Z,14.60
2019-05-21T07:25:38.338Z,14.60
2019-05-21T07:28:08.368Z,14.50
2019-05-21T07:30:38.316Z,14.50
2019-05-21T07:33:08.345Z,14.50
2019-05-21T07:35:38.339Z,14.40
2019-05-21T07:38:08.235Z,14.40
2019-05-21T07:40:38.212Z,14.50
2019-05-21T07:43:08.199Z,14.40
2019-05-21T07:45:38.096Z,14.50
2019-05-21T07:48:08.134Z,14.50
2019-05-21T07:50:38.147Z,14.50
2019-05-21T07:53:08.151Z,14.60
2019-05-21T07:55:38.230Z,14.70
2019-05-21T07:58:08.104Z,14.70
2019-05-21T08:00:38.188Z,14.80
2019-05-21T08:03:08.110Z,14.90
2019-05-21T08:05:38.172Z,15.00
2019-05-21T08:08:08.294Z,14.90
2019-05-21T08:10:38.437Z,14.90
2019-05-21T08:13:08.606Z,14.80
2019-05-21T08:15:38.701Z,14.80
2019-05-21T08:18:09.077Z,14.70
2019-05-21T08:20:39.376Z,14.60
2019-05-21T08:23:09.767Z,14.60
2019-05-21T08:25:40.826Z,14.60
2019-05-21T08:28:10.811Z,14.70
2019-05-21T08:30:40.660Z,14.70
2019-05-21T08:33:10.642Z,14.70
2019-05-21T08:35:40.680Z,14.80
2019-05-21T08:38:11.572Z,14.80
2019-05-21T08:40:41.546Z,14.80
2019-05-21T08:43:11.406Z,14.80
2019-05-21T08:45:41.413Z,14.80
2019-05-21T08:48:11.347Z,14.90
2019-05-21T08:50:41.645Z,14.90
2019-05-21T08:53:12.479Z,14.90
2019-05-21T08:55:42.480Z,14.90
2019-05-21T08:58:14.183Z,14.90
2019-05-21T09:00:44.116Z,14.80
2019-05-21T09:03:15.210Z,14.80
2019-05-21T09:05:45.109Z,14.80
2019-05-21T09:08:15.049Z,14.90
2019-05-21T09:10:45.314Z,14.90
2019-05-21T09:13:17.863Z,14.60
2019-05-21T09:15:48.810Z,14.60
2019-05-21T09:18:20.162Z,14.60
2019-05-21T09:20:50.188Z,14.50
2019-05-21T09:23:20.183Z,14.60
2019-05-21T09:25:50.072Z,14.70
2019-05-21T09:28:20.051Z,14.90
2019-05-21T09:30:51.169Z,14.90
2019-05-21T09:33:21.311Z,15.00
2019-05-21T09:35:52.313Z,15.00
2019-05-21T09:38:22.404Z,15.10
2019-05-21T09:40:52.550Z,15.10
2019-05-21T09:43:22.665Z,15.20
2019-05-21T09:45:52.641Z,15.20
2019-05-21T09:48:22.553Z,15.30
2019-05-21T09:50:52.503Z,15.30
2019-05-21T09:53:22.442Z,15.20
2019-05-21T09:55:52.406Z,15.20
2019-05-21T09:58:23.968Z,15.10
2019-05-21T10:01:11.922Z,15.30
2019-05-21T10:03:46.298Z,15.30
2019-05-21T10:06:16.442Z,15.50
2019-05-21T10:08:46.458Z,15.60
2019-05-21T10:11:16.322Z,15.40
2019-05-21T10:13:46.399Z,15.50
2019-05-21T10:16:18.933Z,15.60
2019-05-21T10:18:49.066Z,15.60
2019-05-21T10:21:18.933Z,15.50
2019-05-21T10:23:48.952Z,15.60
2019-05-21T10:26:18.991Z,15.60
2019-05-21T10:28:49.039Z,15.70
2019-05-21T10:31:18.963Z,15.80
2019-05-21T10:33:49.077Z,15.80
2019-05-21T10:36:19.174Z,15.70
2019-05-21T10:38:49.294Z,15.80
2019-05-21T10:41:19.203Z,15.80
2019-05-21T10:43:49.238Z,15.80
2019-05-21T10:46:19.309Z,16.00
2019-05-21T10:48:49.246Z,16.10
2019-05-21T10:51:19.376Z,16.10
2019-05-21T10:53:49.298Z,16.20
2019-05-21T10:56:19.245Z,16.30
2019-05-21T10:58:49.193Z,16.30
2019-05-21T11:01:20.676Z,16.30
2019-05-21T11:04:04.052Z,16.30
2019-05-21T11:06:34.205Z,16.20
2019-05-21T11:09:07.727Z,16.10
2019-05-21T11:11:37.588Z,16.00
2019-05-21T11:14:07.503Z,16.00
2019-05-21T11:16:37.403Z,15.90
2019-05-21T11:19:07.299Z,15.90
2019-05-21T11:21:37.245Z,15.90
2019-05-21T11:24:13.739Z,15.80
2019-05-21T11:26:43.702Z,15.80
2019-05-21T11:29:13.568Z,15.80
2019-05-21T11:31:56.571Z,15.80
2019-05-21T11:34:14.981Z,15.90
2019-05-21T11:36:45.332Z,16.00
2019-05-21T11:39:15.255Z,16.00
2019-05-21T11:41:45.171Z,16.10
2019-05-21T11:44:15.235Z,16.30
2019-05-21T11:46:45.260Z,16.30
2019-05-21T11:49:15.231Z,16.40
2019-05-21T11:51:45.098Z,16.30
2019-05-21T11:54:15.055Z,16.50
2019-05-21T11:56:44.994Z,16.40
2019-05-21T11:59:16.089Z,16.60
2019-05-21T12:01:46.145Z,16.80
2019-05-21T12:04:17.057Z,17.00
2019-05-21T12:06:47.003Z,17.10
2019-05-21T12:09:17.010Z,17.10
2019-05-21T12:11:46.943Z,17.20
2019-05-21T12:14:16.877Z,17.40
2019-05-21T12:16:46.739Z,17.60
2019-05-21T12:19:16.687Z,17.60
2019-05-21T12:21:46.631Z,17.70
2019-05-21T12:24:16.794Z,17.70
2019-05-21T12:26:46.690Z,17.70
2019-05-21T12:29:16.691Z,17.70
2019-05-21T12:31:46.700Z,17.50
2019-05-21T12:34:16.600Z,17.40
2019-05-21T12:36:46.489Z,17.40
2019-05-21T12:39:16.483Z,17.40
2019-05-21T12:41:46.424Z,17.30
2019-05-21T12:44:17.315Z,17.30
2019-05-21T12:46:47.515Z,17.30
2019-05-21T12:49:17.430Z,17.20
2019-05-21T12:51:47.441Z,17.30
2019-05-21T12:54:17.594Z,17.30
2019-05-21T12:56:47.506Z,17.20
2019-05-21T12:59:18.692Z,17.20
2019-05-21T13:01:48.649Z,17.30
2019-05-21T13:04:18.610Z,17.20
2019-05-21T13:06:48.522Z,17.20
2019-05-21T13:09:32.446Z,17.30
2019-05-21T13:11:50.187Z,17.20
2019-05-21T13:14:20.101Z,17.20
2019-05-21T13:16:50.009Z,17.20
2019-05-21T13:19:20.015Z,17.10
2019-05-21T13:21:49.954Z,17.00
2019-05-21T13:24:19.881Z,16.90
2019-05-21T13:26:49.846Z,16.80
2019-05-21T13:29:19.792Z,16.60
2019-05-21T13:31:49.961Z,16.50
2019-05-21T13:34:20.173Z,16.40
2019-05-21T13:36:50.197Z,16.30
2019-05-21T13:39:20.266Z,16.20
2019-05-21T13:41:50.198Z,16.10
2019-05-21T13:44:20.109Z,16.10
2019-05-21T13:46:50.078Z,16.10
2019-05-21T13:49:20.160Z,16.10
2019-05-21T13:51:50.069Z,16.10
2019-05-21T13:54:20.064Z,16.10
2019-05-21T13:56:50.133Z,16.10
2019-05-21T13:59:20.170Z,16.10
2019-05-21T14:01:50.154Z,16.10
2019-05-21T14:04:20.554Z,16.10
2019-05-21T14:06:50.492Z,16.10
2019-05-21T14:09:20.498Z,16.10
2019-05-21T14:11:50.496Z,16.00
2019-05-21T14:14:20.499Z,16.00
2019-05-21T14:16:50.366Z,16.10
2019-05-21T14:19:20.385Z,16.10
2019-05-21T14:21:50.393Z,16.10
2019-05-21T14:24:20.333Z,16.20
2019-05-21T14:26:50.244Z,16.20
2019-05-21T14:29:20.105Z,16.40
2019-05-21T14:31:50.413Z,16.40
2019-05-21T14:34:20.352Z,16.60
2019-05-21T14:36:51.390Z,16.80
2019-05-21T14:39:21.432Z,17.00
2019-05-21T14:41:51.285Z,17.20
2019-05-21T14:44:21.232Z,17.40
2019-05-21T14:46:51.080Z,17.60
2019-05-21T14:49:22.002Z,17.60
2019-05-21T14:51:51.863Z,17.60
2019-05-21T14:54:26.706Z,17.60
2019-05-21T14:56:53.352Z,17.40
2019-05-21T14:59:23.204Z,17.30
2019-05-21T15:01:53.149Z,17.20
2019-05-21T15:04:23.287Z,17.10
2019-05-21T15:06:53.412Z,17.00
2019-05-21T15:09:23.345Z,16.90
2019-05-21T15:11:53.188Z,16.80
2019-05-21T15:14:23.078Z,16.60
2019-05-21T15:16:53.026Z,16.60
2019-05-21T15:19:22.989Z,16.50
2019-05-21T15:21:54.544Z,16.40
2019-05-21T15:24:24.548Z,16.50
2019-05-21T15:26:54.536Z,16.50
2019-05-21T15:29:24.412Z,16.60
2019-05-21T15:31:54.361Z,16.60
2019-05-21T15:34:24.296Z,16.60
2019-05-21T15:36:54.228Z,16.50
2019-05-21T15:39:24.181Z,16.50
2019-05-21T15:41:54.056Z,16.40
2019-05-21T15:44:24.026Z,16.30
2019-05-21T15:46:53.901Z,16.30
2019-05-21T15:49:35.613Z,16.30
2019-05-21T15:51:56.030Z,16.20
2019-05-21T15:54:26.027Z,16.10
2019-05-21T15:56:55.972Z,16.00
2019-05-21T15:59:25.887Z,16.00
2019-05-21T16:01:55.833Z,15.90
2019-05-21T16:04:25.692Z,15.80
2019-05-21T16:06:55.560Z,15.80
2019-05-21T16:09:25.552Z,15.70
2019-05-21T16:11:55.462Z,15.70
2019-05-21T16:14:25.364Z,15.70
2019-05-21T16:16:55.305Z,15.70
2019-05-21T16:19:25.303Z,15.70
2019-05-21T16:21:55.285Z,15.60
2019-05-21T16:24:25.200Z,15.60
2019-05-21T16:26:55.091Z,15.60
2019-05-21T16:29:24.955Z,15.60
2019-05-21T16:31:54.848Z,15.70
2019-05-21T16:34:24.713Z,15.30
2019-05-21T16:36:54.755Z,15.30
2019-05-21T16:39:25.542Z,15.30
2019-05-21T16:41:55.461Z,15.40
2019-05-21T16:44:25.648Z,15.40
2019-05-21T16:46:55.560Z,15.40
2019-05-21T16:49:26.229Z,15.40
2019-05-21T16:51:56.165Z,15.40
2019-05-21T16:54:26.146Z,15.30
2019-05-21T16:56:56.088Z,15.30
2019-05-21T16:59:26.248Z,15.30
2019-05-21T17:01:56.356Z,15.30
2019-05-21T17:04:26.225Z,15.30
2019-05-21T17:06:57.483Z,15.40
2019-05-21T17:09:28.364Z,15.30
2019-05-21T17:12:00.363Z,15.30
2019-05-21T17:14:30.177Z,15.30
2019-05-21T17:17:00.195Z,15.20
2019-05-21T17:19:30.204Z,15.10
2019-05-21T17:22:01.621Z,15.10
2019-05-21T17:24:31.647Z,15.00
2019-05-21T17:27:01.618Z,15.00
2019-05-21T17:29:31.609Z,14.90
2019-05-21T17:32:01.874Z,14.90
2019-05-21T17:34:31.853Z,14.80
2019-05-21T17:37:01.881Z,14.80
2019-05-21T17:39:31.959Z,14.80
2019-05-21T17:42:14.663Z,14.80
2019-05-21T17:44:33.873Z,14.70
2019-05-21T17:47:04.039Z,14.80
2019-05-21T17:49:34.113Z,14.70
2019-05-21T17:52:04.842Z,14.70
2019-05-21T17:54:34.933Z,14.70
2019-05-21T17:57:05.411Z,14.70
2019-05-21T17:59:35.469Z,14.70
2019-05-21T18:02:07.210Z,14.70
2019-05-21T18:04:38.200Z,14.70
2019-05-21T18:07:10.581Z,14.60
2019-05-21T18:09:41.222Z,14.60
2019-05-21T18:12:12.544Z,14.60
2019-05-21T18:14:42.845Z,14.60
2019-05-21T18:17:13.661Z,14.50
2019-05-21T18:19:44.508Z,14.50
2019-05-21T18:22:16.195Z,14.50
2019-05-21T18:24:48.727Z,14.60
2019-05-21T18:27:18.889Z,14.60
2019-05-21T18:29:49.137Z,14.60
2019-05-21T18:32:19.216Z,14.60
2019-05-21T18:34:49.222Z,14.50
2019-05-21T18:37:19.180Z,14.60
2019-05-21T18:39:49.415Z,14.50
2019-05-21T18:42:22.326Z,14.40
2019-05-21T18:44:51.160Z,14.40
2019-05-21T18:47:21.107Z,14.40
2019-05-21T18:49:51.303Z,14.40
2019-05-21T18:52:21.400Z,14.40
2019-05-21T18:54:51.440Z,14.40
2019-05-21T18:57:21.529Z,14.40
2019-05-21T18:59:51.793Z,14.30
2019-05-21T19:02:21.939Z,14.30
2019-05-21T19:04:51.967Z,14.40
2019-05-21T19:07:22.210Z,14.30
2019-05-21T19:09:52.296Z,14.30
2019-05-21T19:12:36.919Z,14.20
2019-05-21T19:14:54.068Z,14.20
2019-05-21T19:17:35.240Z,14.20
2019-05-21T19:19:56.577Z,14.20
2019-05-21T19:22:27.721Z,14.20
2019-05-21T19:24:57.852Z,14.30
2019-05-21T19:27:27.870Z,14.30
2019-05-21T19:29:59.048Z,14.20
2019-05-21T19:32:28.961Z,14.20
2019-05-21T19:34:58.979Z,14.20
2019-05-21T19:37:28.834Z,14.20
2019-05-21T19:39:58.834Z,14.20
2019-05-21T19:42:28.809Z,14.20
2019-05-21T19:45:00.008Z,14.20
2019-05-21T19:47:29.947Z,14.10
2019-05-21T19:49:59.901Z,14.00
2019-05-21T19:52:30.612Z,14.10
2019-05-21T19:55:01.001Z,14.10
2019-05-21T19:57:32.617Z,14.10
2019-05-21T20:00:02.551Z,14.00
2019-05-21T20:02:32.791Z,14.00
2019-05-21T20:05:04.779Z,14.10
2019-05-21T20:07:35.903Z,14.00
2019-05-21T20:10:08.130Z,14.10
2019-05-21T20:12:39.334Z,14.10
2019-05-21T20:15:09.698Z,14.10
2019-05-21T20:17:41.056Z,14.10
2019-05-21T20:20:13.345Z,14.10
2019-05-21T20:22:45.344Z,14.00
2019-05-21T20:25:16.684Z,14.00
2019-05-21T20:27:47.820Z,14.00
2019-05-21T20:30:20.183Z,14.00
2019-05-21T20:32:50.304Z,14.10
2019-05-21T20:35:22.723Z,14.10
2019-05-21T20:37:53.399Z,14.00
2019-05-21T20:40:25.987Z,13.90
2019-05-21T20:42:56.662Z,13.90
2019-05-21T20:45:28.150Z,13.90
2019-05-21T20:47:58.633Z,13.90
2019-05-21T20:50:28.631Z,13.90
2019-05-21T20:52:58.686Z,13.80
2019-05-21T20:55:30.628Z,13.80
2019-05-21T20:58:00.789Z,13.80
2019-05-21T21:00:41.228Z,13.80
2019-05-21T21:03:13.649Z,13.80
2019-05-21T21:05:44.006Z,13.80
2019-05-21T21:08:14.776Z,13.70
2019-05-21T21:10:45.555Z,13.60
2019-05-21T21:13:16.072Z,13.60
2019-05-21T21:15:46.896Z,13.60
2019-05-21T21:18:18.796Z,13.60
2019-05-21T21:20:49.008Z,13.60
2019-05-21T21:23:21.015Z,13.60
2019-05-21T21:25:51.742Z,13.60
2019-05-21T21:28:22.020Z,13.60
2019-05-21T21:30:52.345Z,13.60
2019-05-21T21:33:22.298Z,13.60
2019-05-21T21:35:52.917Z,13.60
2019-05-21T21:38:24.634Z,13.60
2019-05-21T21:40:54.657Z,13.50
2019-05-21T21:43:25.617Z,13.50
2019-05-21T21:45:55.554Z,13.40
2019-05-21T21:48:26.088Z,13.40
2019-05-21T21:50:56.105Z,13.40
2019-05-21T21:53:26.066Z,13.40
2019-05-21T21:55:55.940Z,13.50
2019-05-21T21:58:25.806Z,13.50
2019-05-21T22:01:03.172Z,13.50
2019-05-21T22:03:36.483Z,13.50
2019-05-21T22:06:08.984Z,13.60
2019-05-21T22:08:39.566Z,13.50
2019-05-21T22:11:09.518Z,13.50
2019-05-21T22:13:39.413Z,13.50
2019-05-21T22:16:09.532Z,13.50
2019-05-21T22:18:39.459Z,13.50
2019-05-21T22:21:09.416Z,13.40
2019-05-21T22:23:40.222Z,13.40
2019-05-21T22:26:10.094Z,13.50
2019-05-21T22:28:40.118Z,13.40
2019-05-21T22:31:10.060Z,13.40
2019-05-21T22:33:39.990Z,13.40
2019-05-21T22:36:11.463Z,13.40
2019-05-21T22:38:41.389Z,13.50
2019-05-21T22:41:11.762Z,13.50
2019-05-21T22:43:41.676Z,13.50
2019-05-21T22:46:11.625Z,13.50
2019-05-21T22:48:41.554Z,13.50
2019-05-21T22:51:11.571Z,13.50
2019-05-21T22:53:41.693Z,13.50
2019-05-21T22:56:11.624Z,13.40
2019-05-21T22:58:41.567Z,13.40
2019-05-21T23:01:11.702Z,13.30
2019-05-21T23:03:41.643Z,13.30
2019-05-21T23:06:11.847Z,13.40
2019-05-21T23:08:42.052Z,13.30
2019-05-21T23:11:12.011Z,13.40
2019-05-21T23:13:41.952Z,13.30
2019-05-21T23:16:12.507Z,13.20
2019-05-21T23:18:51.048Z,13.20
2019-05-21T23:21:26.423Z,13.20
2019-05-21T23:23:59.045Z,13.20
2019-05-21T23:26:30.496Z,13.10
2019-05-21T23:29:01.413Z,13.10
2019-05-21T23:31:32.303Z,13.20
2019-05-21T23:34:02.334Z,13.10
2019-05-21T23:36:32.733Z,13.10
2019-05-21T23:39:04.878Z,13.10
2019-05-21T23:41:36.736Z,13.10
2019-05-21T23:44:06.666Z,13.10
2019-05-21T23:46:36.559Z,13.00
2019-05-21T23:49:06.562Z,13.10
2019-05-21T23:51:36.600Z,13.00
2019-05-21T23:54:07.090Z,13.10
2019-05-21T23:56:37.265Z,13.00
2019-05-21T23:59:07.228Z,13.00
